Portada
METAR-TAF:

METAR-TAF

Aeroports :

Ōdate-Noshiro, Japó

latitud: 40-11N, longitud: 140-12E, altitud: 84 m

Observació

L'informe es va fer fa 58 minuts, a les 06:00 UTC
Vent 10 kt del Sud-Oest
Temperatura 12°C
Humitat 58%
Pressió 1019 hPa
Visibilitat 10 km o més
Escasses núvols a una alçada de 4000 ft
Núvols disperses a una alçada de 5000 ft
Cel ennuvolat

METAR: RJSR 050600Z 23010KT 9999 FEW040 SCT050 BKN/// 12/04 Q1019

Hora: 15:58 (06:58 UTC)


TAF: manca

Observacions i pronòstics meteorològics de més de 4000 aeroports (METAR i TAF).

Les estacions disponibles són els punts grocs i vermells al mapa.

Posi el ratolí al punt desitjat per veure el nom de l'estació.

Feu clic per veure les observacions i els pronòstics meteorològics.

Per canviar el mapa: feu clic els botons verds amb una creu de color negre per apropar; al botó verd amb un guió per allunyar la imatge; o en les fletxes verdes per a mapes adjacents.


METAR-TAF: